sensor_id;sensor_type;location;lat;lon;timestamp;P1;durP1;ratioP1;P2;durP2;ratioP2
8159;SDS011;27404;52.398;9.646;2023-08-06T00:01:49;11.27;;;7.83;;
8159;SDS011;27404;52.398;9.646;2023-08-06T00:04:15;11.00;;;8.33;;
8159;SDS011;27404;52.398;9.646;2023-08-06T00:06:40;11.33;;;8.23;;
8159;SDS011;27404;52.398;9.646;2023-08-06T00:09:06;11.20;;;8.17;;
8159;SDS011;27404;52.398;9.646;2023-08-06T00:11:31;12.53;;;7.67;;
8159;SDS011;27404;52.398;9.646;2023-08-06T00:13:57;10.00;;;7.63;;
8159;SDS011;27404;52.398;9.646;2023-08-06T00:16:22;9.10;;;7.60;;
8159;SDS011;27404;52.398;9.646;2023-08-06T00:18:48;9.80;;;7.70;;
8159;SDS011;27404;52.398;9.646;2023-08-06T00:21:13;11.73;;;8.80;;
8159;SDS011;27404;52.398;9.646;2023-08-06T00:23:39;13.23;;;8.50;;
8159;SDS011;27404;52.398;9.646;2023-08-06T00:26:05;13.03;;;9.53;;
8159;SDS011;27404;52.398;9.646;2023-08-06T00:28:30;13.60;;;9.20;;
8159;SDS011;27404;52.398;9.646;2023-08-06T00:30:56;15.27;;;10.37;;
8159;SDS011;27404;52.398;9.646;2023-08-06T00:33:24;16.30;;;10.60;;
8159;SDS011;27404;52.398;9.646;2023-08-06T00:35:50;15.43;;;10.77;;
8159;SDS011;27404;52.398;9.646;2023-08-06T00:38:16;14.20;;;9.47;;
8159;SDS011;27404;52.398;9.646;2023-08-06T00:40:42;14.17;;;9.33;;
8159;SDS011;27404;52.398;9.646;2023-08-06T00:43:07;10.93;;;7.90;;
8159;SDS011;27404;52.398;9.646;2023-08-06T00:45:33;9.87;;;7.53;;
8159;SDS011;27404;52.398;9.646;2023-08-06T00:48:02;12.37;;;8.37;;
8159;SDS011;27404;52.398;9.646;2023-08-06T00:50:30;8.60;;;6.93;;
8159;SDS011;27404;52.398;9.646;2023-08-06T00:52:55;8.13;;;6.17;;
8159;SDS011;27404;52.398;9.646;2023-08-06T00:55:21;9.67;;;6.90;;
8159;SDS011;27404;52.398;9.646;2023-08-06T00:57:47;8.60;;;6.80;;
8159;SDS011;27404;52.398;9.646;2023-08-06T01:00:13;9.57;;;6.80;;
8159;SDS011;27404;52.398;9.646;2023-08-06T01:02:38;9.93;;;6.07;;
8159;SDS011;27404;52.398;9.646;2023-08-06T01:05:04;13.77;;;6.80;;
8159;SDS011;27404;52.398;9.646;2023-08-06T01:15:52;8.60;;;6.13;;
8159;SDS011;27404;52.398;9.646;2023-08-06T01:18:23;9.63;;;6.80;;
8159;SDS011;27404;52.398;9.646;2023-08-06T01:20:48;8.53;;;6.63;;
8159;SDS011;27404;52.398;9.646;2023-08-06T01:23:15;8.80;;;6.10;;
8159;SDS011;27404;52.398;9.646;2023-08-06T01:26:05;8.40;;;6.20;;
8159;SDS011;27404;52.398;9.646;2023-08-06T01:31:07;8.80;;;5.90;;
8159;SDS011;27404;52.398;9.646;2023-08-06T01:33:41;9.00;;;6.37;;
8159;SDS011;27404;52.398;9.646;2023-08-06T01:36:10;9.27;;;6.77;;
8159;SDS011;27404;52.398;9.646;2023-08-06T01:38:36;10.10;;;6.97;;
8159;SDS011;27404;52.398;9.646;2023-08-06T01:41:02;8.10;;;6.00;;
8159;SDS011;27404;52.398;9.646;2023-08-06T01:43:27;10.43;;;6.50;;
8159;SDS011;27404;52.398;9.646;2023-08-06T01:45:52;9.30;;;6.77;;
8159;SDS011;27404;52.398;9.646;2023-08-06T01:48:18;9.27;;;6.80;;
8159;SDS011;27404;52.398;9.646;2023-08-06T01:50:43;8.10;;;5.90;;
8159;SDS011;27404;52.398;9.646;2023-08-06T01:53:09;9.33;;;6.63;;
8159;SDS011;27404;52.398;9.646;2023-08-06T01:55:34;10.00;;;6.80;;
8159;SDS011;27404;52.398;9.646;2023-08-06T01:58:00;9.90;;;7.13;;
8159;SDS011;27404;52.398;9.646;2023-08-06T02:00:25;11.30;;;7.23;;
8159;SDS011;27404;52.398;9.646;2023-08-06T02:02:52;8.50;;;6.43;;
8159;SDS011;27404;52.398;9.646;2023-08-06T02:05:18;11.83;;;7.63;;
8159;SDS011;27404;52.398;9.646;2023-08-06T02:07:43;14.63;;;8.03;;
8159;SDS011;27404;52.398;9.646;2023-08-06T02:10:09;14.93;;;8.87;;
8159;SDS011;27404;52.398;9.646;2023-08-06T02:12:34;9.10;;;6.53;;
8159;SDS011;27404;52.398;9.646;2023-08-06T02:15:00;12.00;;;7.70;;
8159;SDS011;27404;52.398;9.646;2023-08-06T02:17:25;13.97;;;7.70;;
8159;SDS011;27404;52.398;9.646;2023-08-06T02:19:50;11.07;;;7.83;;
8159;SDS011;27404;52.398;9.646;2023-08-06T02:22:16;10.97;;;8.03;;
8159;SDS011;27404;52.398;9.646;2023-08-06T02:24:41;11.63;;;7.80;;
8159;SDS011;27404;52.398;9.646;2023-08-06T02:27:07;10.27;;;7.80;;
8159;SDS011;27404;52.398;9.646;2023-08-06T02:29:32;12.43;;;8.87;;
8159;SDS011;27404;52.398;9.646;2023-08-06T02:31:58;13.00;;;8.40;;
8159;SDS011;27404;52.398;9.646;2023-08-06T02:34:24;11.13;;;8.47;;
8159;SDS011;27404;52.398;9.646;2023-08-06T02:36:49;13.50;;;9.07;;
8159;SDS011;27404;52.398;9.646;2023-08-06T02:39:15;12.57;;;8.63;;
8159;SDS011;27404;52.398;9.646;2023-08-06T02:41:41;12.17;;;9.10;;
8159;SDS011;27404;52.398;9.646;2023-08-06T02:44:07;13.10;;;9.60;;
8159;SDS011;27404;52.398;9.646;2023-08-06T02:46:32;15.20;;;8.87;;
8159;SDS011;27404;52.398;9.646;2023-08-06T02:48:58;12.27;;;9.53;;
8159;SDS011;27404;52.398;9.646;2023-08-06T02:51:23;14.93;;;8.90;;
8159;SDS011;27404;52.398;9.646;2023-08-06T02:53:48;13.97;;;9.53;;
8159;SDS011;27404;52.398;9.646;2023-08-06T02:56:14;13.73;;;9.73;;
8159;SDS011;27404;52.398;9.646;2023-08-06T02:58:40;13.60;;;10.10;;
8159;SDS011;27404;52.398;9.646;2023-08-06T03:01:05;13.77;;;9.40;;
8159;SDS011;27404;52.398;9.646;2023-08-06T03:03:32;15.00;;;9.37;;
8159;SDS011;27404;52.398;9.646;2023-08-06T03:05:58;15.40;;;9.63;;
8159;SDS011;27404;52.398;9.646;2023-08-06T03:08:24;14.67;;;8.90;;
8159;SDS011;27404;52.398;9.646;2023-08-06T03:10:50;15.37;;;10.83;;
8159;SDS011;27404;52.398;9.646;2023-08-06T03:13:19;14.80;;;10.57;;
8159;SDS011;27404;52.398;9.646;2023-08-06T03:15:54;16.47;;;10.47;;
8159;SDS011;27404;52.398;9.646;2023-08-06T03:18:21;16.40;;;10.07;;
8159;SDS011;27404;52.398;9.646;2023-08-06T03:20:47;13.77;;;9.63;;
8159;SDS011;27404;52.398;9.646;2023-08-06T03:23:12;15.47;;;10.87;;
8159;SDS011;27404;52.398;9.646;2023-08-06T03:25:37;16.63;;;9.70;;
8159;SDS011;27404;52.398;9.646;2023-08-06T03:28:03;16.50;;;11.27;;
8159;SDS011;27404;52.398;9.646;2023-08-06T03:30:29;15.53;;;10.47;;
8159;SDS011;27404;52.398;9.646;2023-08-06T03:32:54;15.53;;;10.50;;
8159;SDS011;27404;52.398;9.646;2023-08-06T03:35:19;15.90;;;11.03;;
8159;SDS011;27404;52.398;9.646;2023-08-06T03:37:45;15.33;;;9.67;;
8159;SDS011;27404;52.398;9.646;2023-08-06T03:40:11;15.47;;;10.67;;
8159;SDS011;27404;52.398;9.646;2023-08-06T03:42:36;17.77;;;11.20;;
8159;SDS011;27404;52.398;9.646;2023-08-06T03:45:02;17.30;;;11.17;;
8159;SDS011;27404;52.398;9.646;2023-08-06T03:47:28;18.13;;;11.40;;
8159;SDS011;27404;52.398;9.646;2023-08-06T03:49:53;16.50;;;10.60;;
8159;SDS011;27404;52.398;9.646;2023-08-06T03:52:19;21.00;;;11.47;;
8159;SDS011;27404;52.398;9.646;2023-08-06T03:54:44;17.50;;;10.90;;
8159;SDS011;27404;52.398;9.646;2023-08-06T03:57:09;19.37;;;10.70;;
8159;SDS011;27404;52.398;9.646;2023-08-06T03:59:35;18.20;;;10.60;;
8159;SDS011;27404;52.398;9.646;2023-08-06T04:02:01;17.20;;;11.30;;
8159;SDS011;27404;52.398;9.646;2023-08-06T04:04:26;16.27;;;10.93;;
8159;SDS011;27404;52.398;9.646;2023-08-06T04:06:52;20.07;;;12.40;;
8159;SDS011;27404;52.398;9.646;2023-08-06T04:09:17;21.57;;;13.10;;
8159;SDS011;27404;52.398;9.646;2023-08-06T04:11:43;19.40;;;12.87;;
8159;SDS011;27404;52.398;9.646;2023-08-06T04:14:08;18.80;;;12.33;;
8159;SDS011;27404;52.398;9.646;2023-08-06T04:16:33;19.13;;;11.40;;
8159;SDS011;27404;52.398;9.646;2023-08-06T04:18:59;20.87;;;11.30;;
8159;SDS011;27404;52.398;9.646;2023-08-06T04:21:24;20.77;;;12.13;;
8159;SDS011;27404;52.398;9.646;2023-08-06T04:23:50;18.33;;;11.10;;
8159;SDS011;27404;52.398;9.646;2023-08-06T04:26:15;16.57;;;10.20;;
8159;SDS011;27404;52.398;9.646;2023-08-06T04:28:40;19.93;;;10.93;;
8159;SDS011;27404;52.398;9.646;2023-08-06T04:31:06;16.50;;;10.37;;
8159;SDS011;27404;52.398;9.646;2023-08-06T04:33:31;16.03;;;10.13;;
8159;SDS011;27404;52.398;9.646;2023-08-06T04:35:57;13.03;;;8.80;;
8159;SDS011;27404;52.398;9.646;2023-08-06T04:38:23;17.13;;;10.97;;
8159;SDS011;27404;52.398;9.646;2023-08-06T04:40:50;17.60;;;10.63;;
8159;SDS011;27404;52.398;9.646;2023-08-06T04:43:15;17.33;;;11.17;;
8159;SDS011;27404;52.398;9.646;2023-08-06T04:45:50;17.80;;;10.60;;
8159;SDS011;27404;52.398;9.646;2023-08-06T04:48:19;19.63;;;12.73;;
8159;SDS011;27404;52.398;9.646;2023-08-06T04:50:47;22.13;;;12.70;;
8159;SDS011;27404;52.398;9.646;2023-08-06T04:53:15;20.00;;;11.87;;
8159;SDS011;27404;52.398;9.646;2023-08-06T04:55:41;17.17;;;10.70;;
8159;SDS011;27404;52.398;9.646;2023-08-06T04:58:08;17.93;;;11.03;;
8159;SDS011;27404;52.398;9.646;2023-08-06T05:00:34;17.77;;;12.10;;
8159;SDS011;27404;52.398;9.646;2023-08-06T05:03:00;17.00;;;11.60;;
8159;SDS011;27404;52.398;9.646;2023-08-06T05:05:26;17.63;;;11.00;;
8159;SDS011;27404;52.398;9.646;2023-08-06T05:07:54;18.33;;;11.33;;
8159;SDS011;27404;52.398;9.646;2023-08-06T05:10:21;20.20;;;11.07;;
8159;SDS011;27404;52.398;9.646;2023-08-06T05:12:49;16.43;;;11.03;;
8159;SDS011;27404;52.398;9.646;2023-08-06T05:15:14;13.70;;;9.87;;
8159;SDS011;27404;52.398;9.646;2023-08-06T05:17:40;17.13;;;11.27;;
8159;SDS011;27404;52.398;9.646;2023-08-06T05:20:05;16.83;;;11.23;;
8159;SDS011;27404;52.398;9.646;2023-08-06T05:22:31;16.77;;;11.07;;
8159;SDS011;27404;52.398;9.646;2023-08-06T05:24:56;16.90;;;11.10;;
8159;SDS011;27404;52.398;9.646;2023-08-06T05:27:22;16.90;;;10.50;;
8159;SDS011;27404;52.398;9.646;2023-08-06T05:29:47;13.93;;;9.27;;
8159;SDS011;27404;52.398;9.646;2023-08-06T05:32:13;13.43;;;9.50;;
8159;SDS011;27404;52.398;9.646;2023-08-06T05:34:38;13.37;;;9.60;;
8159;SDS011;27404;52.398;9.646;2023-08-06T05:37:04;12.57;;;9.17;;
8159;SDS011;27404;52.398;9.646;2023-08-06T05:39:29;13.37;;;9.47;;
8159;SDS011;27404;52.398;9.646;2023-08-06T05:41:55;13.03;;;9.23;;
8159;SDS011;27404;52.398;9.646;2023-08-06T05:44:21;11.30;;;8.00;;
8159;SDS011;27404;52.398;9.646;2023-08-06T05:46:46;11.00;;;7.47;;
8159;SDS011;27404;52.398;9.646;2023-08-06T05:49:12;10.80;;;7.90;;
8159;SDS011;27404;52.398;9.646;2023-08-06T05:51:39;9.43;;;7.27;;
8159;SDS011;27404;52.398;9.646;2023-08-06T05:54:04;11.93;;;7.80;;
8159;SDS011;27404;52.398;9.646;2023-08-06T05:56:30;8.63;;;7.13;;
8159;SDS011;27404;52.398;9.646;2023-08-06T05:58:55;8.83;;;6.67;;
8159;SDS011;27404;52.398;9.646;2023-08-06T06:01:21;8.73;;;5.70;;
8159;SDS011;27404;52.398;9.646;2023-08-06T06:03:46;6.40;;;3.87;;
8159;SDS011;27404;52.398;9.646;2023-08-06T06:06:12;3.15;;;2.65;;
8159;SDS011;27404;52.398;9.646;2023-08-06T06:08:37;4.07;;;3.05;;
8159;SDS011;27404;52.398;9.646;2023-08-06T06:11:02;4.53;;;2.10;;
8159;SDS011;27404;52.398;9.646;2023-08-06T06:13:28;5.55;;;3.40;;
8159;SDS011;27404;52.398;9.646;2023-08-06T06:15:56;3.42;;;2.47;;
8159;SDS011;27404;52.398;9.646;2023-08-06T06:18:22;4.32;;;2.20;;
8159;SDS011;27404;52.398;9.646;2023-08-06T06:20:47;4.60;;;2.05;;
8159;SDS011;27404;52.398;9.646;2023-08-06T06:23:13;2.47;;;1.83;;
8159;SDS011;27404;52.398;9.646;2023-08-06T06:25:49;2.67;;;1.65;;
8159;SDS011;27404;52.398;9.646;2023-08-06T06:28:18;2.47;;;2.08;;
8159;SDS011;27404;52.398;9.646;2023-08-06T06:30:43;3.20;;;1.80;;
8159;SDS011;27404;52.398;9.646;2023-08-06T06:33:09;2.35;;;1.35;;
8159;SDS011;27404;52.398;9.646;2023-08-06T06:35:35;4.38;;;1.30;;
8159;SDS011;27404;52.398;9.646;2023-08-06T06:38:00;2.05;;;1.65;;
8159;SDS011;27404;52.398;9.646;2023-08-06T06:40:26;2.88;;;1.65;;
8159;SDS011;27404;52.398;9.646;2023-08-06T06:42:51;2.05;;;1.45;;
8159;SDS011;27404;52.398;9.646;2023-08-06T06:45:17;3.38;;;1.30;;
8159;SDS011;27404;52.398;9.646;2023-08-06T06:47:42;5.07;;;1.67;;
8159;SDS011;27404;52.398;9.646;2023-08-06T06:50:08;2.85;;;1.70;;
8159;SDS011;27404;52.398;9.646;2023-08-06T06:52:34;2.10;;;1.60;;
8159;SDS011;27404;52.398;9.646;2023-08-06T06:54:59;2.25;;;1.52;;
8159;SDS011;27404;52.398;9.646;2023-08-06T06:57:25;1.90;;;1.30;;
8159;SDS011;27404;52.398;9.646;2023-08-06T06:59:50;4.00;;;1.33;;
8159;SDS011;27404;52.398;9.646;2023-08-06T07:02:15;5.97;;;1.48;;
8159;SDS011;27404;52.398;9.646;2023-08-06T07:04:41;3.03;;;1.40;;
8159;SDS011;27404;52.398;9.646;2023-08-06T07:07:06;2.20;;;1.40;;
8159;SDS011;27404;52.398;9.646;2023-08-06T07:09:32;2.72;;;1.90;;
8159;SDS011;27404;52.398;9.646;2023-08-06T07:11:57;1.85;;;1.30;;
8159;SDS011;27404;52.398;9.646;2023-08-06T07:14:25;3.60;;;1.70;;
8159;SDS011;27404;52.398;9.646;2023-08-06T07:16:50;1.60;;;1.20;;
8159;SDS011;27404;52.398;9.646;2023-08-06T07:19:16;2.85;;;1.40;;
8159;SDS011;27404;52.398;9.646;2023-08-06T07:21:41;2.30;;;1.50;;
8159;SDS011;27404;52.398;9.646;2023-08-06T07:24:07;3.35;;;1.50;;
8159;SDS011;27404;52.398;9.646;2023-08-06T07:26:32;3.15;;;1.77;;
8159;SDS011;27404;52.398;9.646;2023-08-06T07:28:58;2.75;;;1.50;;
8159;SDS011;27404;52.398;9.646;2023-08-06T07:31:23;2.15;;;1.48;;
8159;SDS011;27404;52.398;9.646;2023-08-06T07:33:49;2.35;;;1.77;;
8159;SDS011;27404;52.398;9.646;2023-08-06T07:36:14;3.40;;;1.55;;
8159;SDS011;27404;52.398;9.646;2023-08-06T07:38:40;2.22;;;1.73;;
8159;SDS011;27404;52.398;9.646;2023-08-06T07:41:06;3.05;;;1.67;;
8159;SDS011;27404;52.398;9.646;2023-08-06T07:43:31;2.60;;;1.70;;
8159;SDS011;27404;52.398;9.646;2023-08-06T07:45:58;3.53;;;1.90;;
8159;SDS011;27404;52.398;9.646;2023-08-06T07:48:25;2.63;;;1.70;;
8159;SDS011;27404;52.398;9.646;2023-08-06T07:50:51;8.70;;;1.75;;
8159;SDS011;27404;52.398;9.646;2023-08-06T07:53:19;4.18;;;1.70;;
8159;SDS011;27404;52.398;9.646;2023-08-06T07:55:50;2.80;;;1.58;;
8159;SDS011;27404;52.398;9.646;2023-08-06T07:58:17;4.10;;;1.75;;
8159;SDS011;27404;52.398;9.646;2023-08-06T08:00:43;1.92;;;1.65;;
8159;SDS011;27404;52.398;9.646;2023-08-06T08:03:11;4.78;;;2.15;;
8159;SDS011;27404;52.398;9.646;2023-08-06T08:05:40;2.28;;;1.65;;
8159;SDS011;27404;52.398;9.646;2023-08-06T08:08:06;6.20;;;1.65;;
8159;SDS011;27404;52.398;9.646;2023-08-06T08:10:32;2.20;;;1.60;;
8159;SDS011;27404;52.398;9.646;2023-08-06T08:12:58;1.65;;;1.27;;
8159;SDS011;27404;52.398;9.646;2023-08-06T08:15:27;3.97;;;1.58;;
8159;SDS011;27404;52.398;9.646;2023-08-06T08:17:53;2.50;;;1.50;;
8159;SDS011;27404;52.398;9.646;2023-08-06T08:20:19;4.18;;;2.40;;
8159;SDS011;27404;52.398;9.646;2023-08-06T08:22:45;2.72;;;1.92;;
8159;SDS011;27404;52.398;9.646;2023-08-06T08:25:11;8.05;;;2.00;;
8159;SDS011;27404;52.398;9.646;2023-08-06T08:27:36;5.15;;;2.38;;
8159;SDS011;27404;52.398;9.646;2023-08-06T08:30:01;2.60;;;2.08;;
8159;SDS011;27404;52.398;9.646;2023-08-06T08:32:27;5.65;;;2.28;;
8159;SDS011;27404;52.398;9.646;2023-08-06T08:34:52;2.25;;;2.05;;
8159;SDS011;27404;52.398;9.646;2023-08-06T08:37:18;3.67;;;1.88;;
8159;SDS011;27404;52.398;9.646;2023-08-06T08:39:44;4.15;;;2.25;;
8159;SDS011;27404;52.398;9.646;2023-08-06T08:42:09;2.83;;;2.00;;
8159;SDS011;27404;52.398;9.646;2023-08-06T08:44:35;3.00;;;1.95;;
8159;SDS011;27404;52.398;9.646;2023-08-06T08:47:04;2.70;;;2.10;;
8159;SDS011;27404;52.398;9.646;2023-08-06T08:49:34;3.13;;;2.00;;
8159;SDS011;27404;52.398;9.646;2023-08-06T08:52:01;2.40;;;1.90;;
8159;SDS011;27404;52.398;9.646;2023-08-06T08:54:28;3.28;;;1.75;;
8159;SDS011;27404;52.398;9.646;2023-08-06T08:56:56;4.95;;;2.42;;
8159;SDS011;27404;52.398;9.646;2023-08-06T08:59:22;3.72;;;2.00;;
8159;SDS011;27404;52.398;9.646;2023-08-06T09:01:47;4.88;;;2.28;;
8159;SDS011;27404;52.398;9.646;2023-08-06T09:04:17;2.85;;;2.00;;
8159;SDS011;27404;52.398;9.646;2023-08-06T09:06:43;5.97;;;2.35;;
8159;SDS011;27404;52.398;9.646;2023-08-06T09:09:22;2.90;;;2.33;;
8159;SDS011;27404;52.398;9.646;2023-08-06T09:11:51;3.25;;;2.08;;
8159;SDS011;27404;52.398;9.646;2023-08-06T09:14:20;2.85;;;2.05;;
8159;SDS011;27404;52.398;9.646;2023-08-06T09:16:46;5.03;;;2.30;;
8159;SDS011;27404;52.398;9.646;2023-08-06T09:19:13;2.83;;;2.33;;
8159;SDS011;27404;52.398;9.646;2023-08-06T09:21:41;7.40;;;2.08;;
8159;SDS011;27404;52.398;9.646;2023-08-06T09:24:10;6.28;;;1.80;;
8159;SDS011;27404;52.398;9.646;2023-08-06T09:26:40;2.42;;;2.20;;
8159;SDS011;27404;52.398;9.646;2023-08-06T09:29:07;3.28;;;2.00;;
8159;SDS011;27404;52.398;9.646;2023-08-06T09:31:49;2.53;;;1.88;;
8159;SDS011;27404;52.398;9.646;2023-08-06T09:34:19;2.97;;;1.98;;
8159;SDS011;27404;52.398;9.646;2023-08-06T09:36:50;3.92;;;1.95;;
8159;SDS011;27404;52.398;9.646;2023-08-06T09:39:19;2.35;;;2.08;;
8159;SDS011;27404;52.398;9.646;2023-08-06T09:41:47;2.72;;;1.90;;
8159;SDS011;27404;52.398;9.646;2023-08-06T09:46:48;5.35;;;2.10;;
8159;SDS011;27404;52.398;9.646;2023-08-06T09:49:22;3.00;;;1.90;;
8159;SDS011;27404;52.398;9.646;2023-08-06T09:51:51;2.38;;;1.88;;
8159;SDS011;27404;52.398;9.646;2023-08-06T09:54:18;2.20;;;1.50;;
8159;SDS011;27404;52.398;9.646;2023-08-06T09:56:44;2.00;;;1.80;;
8159;SDS011;27404;52.398;9.646;2023-08-06T09:59:10;4.72;;;2.70;;
8159;SDS011;27404;52.398;9.646;2023-08-06T10:01:38;2.60;;;1.90;;
8159;SDS011;27404;52.398;9.646;2023-08-06T10:04:04;5.63;;;1.88;;
8159;SDS011;27404;52.398;9.646;2023-08-06T10:06:33;2.58;;;1.70;;
8159;SDS011;27404;52.398;9.646;2023-08-06T10:09:00;2.00;;;1.80;;
8159;SDS011;27404;52.398;9.646;2023-08-06T10:11:26;1.98;;;1.65;;
8159;SDS011;27404;52.398;9.646;2023-08-06T10:13:55;3.85;;;2.55;;
8159;SDS011;27404;52.398;9.646;2023-08-06T10:16:25;3.67;;;2.50;;
8159;SDS011;27404;52.398;9.646;2023-08-06T10:18:52;5.68;;;2.78;;
8159;SDS011;27404;52.398;9.646;2023-08-06T10:21:19;3.13;;;2.65;;
8159;SDS011;27404;52.398;9.646;2023-08-06T10:23:49;3.97;;;3.13;;
8159;SDS011;27404;52.398;9.646;2023-08-06T10:26:19;5.30;;;3.15;;
8159;SDS011;27404;52.398;9.646;2023-08-06T10:28:45;6.20;;;3.08;;
8159;SDS011;27404;52.398;9.646;2023-08-06T10:31:11;3.42;;;2.78;;
8159;SDS011;27404;52.398;9.646;2023-08-06T10:33:43;5.90;;;3.00;;
8159;SDS011;27404;52.398;9.646;2023-08-06T10:36:10;5.47;;;4.28;;
8159;SDS011;27404;52.398;9.646;2023-08-06T10:38:37;3.47;;;2.35;;
8159;SDS011;27404;52.398;9.646;2023-08-06T10:41:27;4.03;;;2.35;;
8159;SDS011;27404;52.398;9.646;2023-08-06T10:44:05;5.35;;;2.83;;
8159;SDS011;27404;52.398;9.646;2023-08-06T10:46:34;4.47;;;2.60;;
8159;SDS011;27404;52.398;9.646;2023-08-06T10:49:00;3.50;;;2.30;;
8159;SDS011;27404;52.398;9.646;2023-08-06T10:51:26;5.07;;;1.90;;
8159;SDS011;27404;52.398;9.646;2023-08-06T10:53:52;2.78;;;1.88;;
8159;SDS011;27404;52.398;9.646;2023-08-06T10:56:18;5.40;;;2.30;;
8159;SDS011;27404;52.398;9.646;2023-08-06T10:58:47;2.72;;;1.92;;
8159;SDS011;27404;52.398;9.646;2023-08-06T11:01:13;3.15;;;1.80;;
8159;SDS011;27404;52.398;9.646;2023-08-06T11:03:42;2.17;;;1.98;;
8159;SDS011;27404;52.398;9.646;2023-08-06T11:06:08;3.30;;;2.10;;
8159;SDS011;27404;52.398;9.646;2023-08-06T11:08:38;3.08;;;1.70;;
8159;SDS011;27404;52.398;9.646;2023-08-06T11:11:12;3.97;;;1.90;;
8159;SDS011;27404;52.398;9.646;2023-08-06T11:13:42;3.35;;;2.20;;
8159;SDS011;27404;52.398;9.646;2023-08-06T11:16:11;5.50;;;2.20;;
8159;SDS011;27404;52.398;9.646;2023-08-06T11:18:37;2.42;;;2.08;;
8159;SDS011;27404;52.398;9.646;2023-08-06T11:21:02;2.30;;;1.80;;
8159;SDS011;27404;52.398;9.646;2023-08-06T11:23:28;2.70;;;2.10;;
8159;SDS011;27404;52.398;9.646;2023-08-06T11:25:55;3.55;;;1.90;;
8159;SDS011;27404;52.398;9.646;2023-08-06T11:28:21;3.17;;;1.73;;
8159;SDS011;27404;52.398;9.646;2023-08-06T11:30:47;5.53;;;1.95;;
8159;SDS011;27404;52.398;9.646;2023-08-06T11:33:14;2.95;;;1.80;;
8159;SDS011;27404;52.398;9.646;2023-08-06T11:35:39;2.50;;;2.00;;
8159;SDS011;27404;52.398;9.646;2023-08-06T11:38:06;2.50;;;1.88;;
8159;SDS011;27404;52.398;9.646;2023-08-06T11:40:32;3.38;;;2.30;;
8159;SDS011;27404;52.398;9.646;2023-08-06T11:42:58;2.92;;;1.90;;
8159;SDS011;27404;52.398;9.646;2023-08-06T11:45:24;2.17;;;1.70;;
8159;SDS011;27404;52.398;9.646;2023-08-06T11:47:50;2.25;;;1.73;;
8159;SDS011;27404;52.398;9.646;2023-08-06T11:50:24;3.22;;;1.88;;
8159;SDS011;27404;52.398;9.646;2023-08-06T11:52:57;2.60;;;1.58;;
8159;SDS011;27404;52.398;9.646;2023-08-06T11:55:24;2.50;;;1.60;;
8159;SDS011;27404;52.398;9.646;2023-08-06T11:57:50;2.10;;;1.58;;
8159;SDS011;27404;52.398;9.646;2023-08-06T12:00:16;5.15;;;1.90;;
8159;SDS011;27404;52.398;9.646;2023-08-06T12:02:43;2.60;;;1.40;;
8159;SDS011;27404;52.398;9.646;2023-08-06T12:05:13;3.28;;;1.98;;
8159;SDS011;27404;52.398;9.646;2023-08-06T12:07:47;5.15;;;2.05;;
8159;SDS011;27404;52.398;9.646;2023-08-06T12:10:15;2.13;;;1.70;;
8159;SDS011;27404;52.398;9.646;2023-08-06T12:12:44;2.28;;;1.67;;
8159;SDS011;27404;52.398;9.646;2023-08-06T12:15:10;2.47;;;1.77;;
8159;SDS011;27404;52.398;9.646;2023-08-06T12:17:36;3.22;;;2.05;;
8159;SDS011;27404;52.398;9.646;2023-08-06T12:20:02;3.22;;;1.85;;
8159;SDS011;27404;52.398;9.646;2023-08-06T12:22:29;2.63;;;1.75;;
8159;SDS011;27404;52.398;9.646;2023-08-06T12:24:59;2.95;;;1.80;;
8159;SDS011;27404;52.398;9.646;2023-08-06T12:27:26;3.92;;;1.85;;
8159;SDS011;27404;52.398;9.646;2023-08-06T12:29:51;2.92;;;1.80;;
8159;SDS011;27404;52.398;9.646;2023-08-06T12:32:17;1.92;;;1.65;;
8159;SDS011;27404;52.398;9.646;2023-08-06T12:34:43;2.63;;;1.80;;
8159;SDS011;27404;52.398;9.646;2023-08-06T12:37:08;2.67;;;1.90;;
8159;SDS011;27404;52.398;9.646;2023-08-06T12:39:35;3.20;;;1.80;;
8159;SDS011;27404;52.398;9.646;2023-08-06T12:42:01;3.70;;;1.95;;
8159;SDS011;27404;52.398;9.646;2023-08-06T12:44:27;3.67;;;1.70;;
8159;SDS011;27404;52.398;9.646;2023-08-06T12:46:53;2.20;;;1.90;;
8159;SDS011;27404;52.398;9.646;2023-08-06T12:49:19;4.35;;;2.25;;
8159;SDS011;27404;52.398;9.646;2023-08-06T12:51:50;3.13;;;2.25;;
8159;SDS011;27404;52.398;9.646;2023-08-06T12:54:16;3.05;;;2.13;;
8159;SDS011;27404;52.398;9.646;2023-08-06T12:56:43;2.95;;;2.35;;
8159;SDS011;27404;52.398;9.646;2023-08-06T12:59:09;2.45;;;2.20;;
8159;SDS011;27404;52.398;9.646;2023-08-06T13:01:34;2.38;;;2.10;;
8159;SDS011;27404;52.398;9.646;2023-08-06T13:04:00;2.63;;;2.05;;
8159;SDS011;27404;52.398;9.646;2023-08-06T13:06:25;2.38;;;2.00;;
8159;SDS011;27404;52.398;9.646;2023-08-06T13:08:51;2.35;;;1.92;;
8159;SDS011;27404;52.398;9.646;2023-08-06T13:11:16;2.90;;;2.17;;
8159;SDS011;27404;52.398;9.646;2023-08-06T13:13:42;3.60;;;1.90;;
8159;SDS011;27404;52.398;9.646;2023-08-06T13:16:07;4.50;;;2.20;;
8159;SDS011;27404;52.398;9.646;2023-08-06T13:18:33;3.05;;;1.90;;
8159;SDS011;27404;52.398;9.646;2023-08-06T13:20:58;2.58;;;1.92;;
8159;SDS011;27404;52.398;9.646;2023-08-06T13:23:24;3.88;;;1.92;;
8159;SDS011;27404;52.398;9.646;2023-08-06T13:25:49;2.88;;;2.00;;
8159;SDS011;27404;52.398;9.646;2023-08-06T13:28:15;2.55;;;2.00;;
8159;SDS011;27404;52.398;9.646;2023-08-06T13:30:40;3.83;;;2.00;;
8159;SDS011;27404;52.398;9.646;2023-08-06T13:33:09;2.17;;;1.98;;
8159;SDS011;27404;52.398;9.646;2023-08-06T13:35:35;3.72;;;2.35;;
8159;SDS011;27404;52.398;9.646;2023-08-06T13:38:00;2.75;;;1.77;;
8159;SDS011;27404;52.398;9.646;2023-08-06T13:40:29;2.25;;;1.60;;
8159;SDS011;27404;52.398;9.646;2023-08-06T13:42:55;1.50;;;1.38;;
8159;SDS011;27404;52.398;9.646;2023-08-06T13:45:21;2.55;;;1.65;;
8159;SDS011;27404;52.398;9.646;2023-08-06T13:47:47;2.42;;;1.80;;
8159;SDS011;27404;52.398;9.646;2023-08-06T13:50:12;3.35;;;2.03;;
8159;SDS011;27404;52.398;9.646;2023-08-06T13:52:38;2.75;;;1.65;;
8159;SDS011;27404;52.398;9.646;2023-08-06T13:55:04;2.13;;;1.60;;
8159;SDS011;27404;52.398;9.646;2023-08-06T13:57:30;3.85;;;2.03;;
8159;SDS011;27404;52.398;9.646;2023-08-06T13:59:55;2.63;;;2.00;;
8159;SDS011;27404;52.398;9.646;2023-08-06T14:02:21;3.97;;;1.70;;
8159;SDS011;27404;52.398;9.646;2023-08-06T14:04:47;5.70;;;4.15;;
8159;SDS011;27404;52.398;9.646;2023-08-06T14:07:13;2.58;;;1.92;;
8159;SDS011;27404;52.398;9.646;2023-08-06T14:09:38;1.70;;;1.55;;
8159;SDS011;27404;52.398;9.646;2023-08-06T14:12:05;2.10;;;1.70;;
8159;SDS011;27404;52.398;9.646;2023-08-06T14:14:31;2.22;;;1.73;;
8159;SDS011;27404;52.398;9.646;2023-08-06T14:16:56;2.20;;;2.00;;
8159;SDS011;27404;52.398;9.646;2023-08-06T14:19:22;2.22;;;1.70;;
8159;SDS011;27404;52.398;9.646;2023-08-06T14:21:47;2.88;;;1.73;;
8159;SDS011;27404;52.398;9.646;2023-08-06T14:24:13;7.22;;;2.03;;
8159;SDS011;27404;52.398;9.646;2023-08-06T14:26:38;3.63;;;2.00;;
8159;SDS011;27404;52.398;9.646;2023-08-06T14:29:04;3.53;;;2.40;;
8159;SDS011;27404;52.398;9.646;2023-08-06T14:31:29;8.73;;;3.30;;
8159;SDS011;27404;52.398;9.646;2023-08-06T14:33:55;4.47;;;2.60;;
8159;SDS011;27404;52.398;9.646;2023-08-06T14:36:20;4.47;;;3.10;;
8159;SDS011;27404;52.398;9.646;2023-08-06T14:38:47;10.40;;;4.00;;
8159;SDS011;27404;52.398;9.646;2023-08-06T14:41:12;7.23;;;3.60;;
8159;SDS011;27404;52.398;9.646;2023-08-06T14:43:38;6.03;;;3.10;;
8159;SDS011;27404;52.398;9.646;2023-08-06T14:46:03;3.47;;;2.47;;
8159;SDS011;27404;52.398;9.646;2023-08-06T14:48:30;4.07;;;2.70;;
8159;SDS011;27404;52.398;9.646;2023-08-06T14:50:55;3.20;;;2.70;;
8159;SDS011;27404;52.398;9.646;2023-08-06T14:53:21;4.03;;;2.60;;
8159;SDS011;27404;52.398;9.646;2023-08-06T14:55:46;3.17;;;2.40;;
8159;SDS011;27404;52.398;9.646;2023-08-06T14:58:12;5.80;;;3.30;;
8159;SDS011;27404;52.398;9.646;2023-08-06T15:00:37;4.50;;;2.70;;
8159;SDS011;27404;52.398;9.646;2023-08-06T15:03:03;3.83;;;2.60;;
8159;SDS011;27404;52.398;9.646;2023-08-06T15:05:28;4.60;;;3.13;;